My Codene — E5U2196 — position and weather

sailwx.info

Track history (hours):
 
Tides and Currents Weather Stations Pressure Air Temp Water Temp Dewpoint Dewpoint Depression Visibility Wind Speed Wind Dir Waves Ship Positions

My Codene

Last reported at 2013-Aug-17 20:04 UTC. Time now 2014-Jul-30 05:05 UTC.
Position N 25°53' W 080°04'.
Warning: this ship's position is months out of date.

Length 34 m.

Type: Pleasure craft. MMSI: 512151000.

Date/timePositionNaut miles runAvg speedWind from/ knotsBaromVisibWave heightAir tempDewpointWater temp
2013-Aug-17 20:04N 25°53' W 080°04'3 6.2
2013-Aug-17 19:33N 25°57' W 080°04'5 5.2
2013-Aug-17 18:33N 26°02' W 080°04'4 3.8
2013-Aug-17 17:31N 26°06' W 080°06'1 1.3
2013-Aug-17 16:30N 26°06' W 080°07'0 0.0
2013-Aug-17 15:30N 26°06' W 080°07'0 0.0
2013-Aug-17 14:33N 26°06' W 080°07'0 0.0
2013-Aug-17 13:33N 26°06' W 080°07'0 0.0
2013-Aug-17 12:24N 26°06' W 080°07'0 0.0
2013-Aug-17 11:24N 26°06' W 080°07'0 0.0
2013-Aug-17 10:24N 26°06' W 080°07'0 0.0
2013-Aug-17 09:27N 26°06' W 080°07'0 0.0
2013-Aug-17 07:15N 26°06' W 080°07'0 0.0
2013-Aug-17 06:33N 26°06' W 080°07'0 0.0
2013-Aug-17 04:30N 26°06' W 080°07'0 0.0
2013-Aug-17 03:06N 26°06' W 080°07'0 0.0
2013-Aug-17 02:21N 26°06' W 080°07'0 0.0
2013-Aug-17 01:33N 26°06' W 080°07'0 0.0
2013-Aug-17 00:24N 26°06' W 080°07'0 0.0
2013-Aug-16 23:24N 26°06' W 080°07'0 0.0
2013-Aug-16 22:24N 26°06' W 080°07'0 0.0
2013-Aug-16 21:24N 26°06' W 080°07'0 0.0
2013-Aug-16 20:30N 26°06' W 080°07'0 0.0
2013-Aug-16 19:30N 26°06' W 080°07'0 0.0
2013-Aug-16 18:30N 26°06' W 080°07'0 0.0
2013-Aug-16 17:18N 26°06' W 080°07'0 0.0
2013-Aug-16 16:33N 26°06' W 080°07'0 0.0
2013-Aug-16 14:33N 26°06' W 080°07'0 0.0
2013-Aug-16 13:33N 26°06' W 080°07'0 0.0
2013-Aug-16 12:24N 26°06' W 080°07'0 0.0
2013-Aug-16 11:24N 26°06' W 080°07'0 0.0
2013-Aug-16 10:27N 26°06' W 080°07'0 0.0
2013-Aug-16 09:27N 26°06' W 080°07'0 0.0
2013-Aug-16 08:30N 26°06' W 080°07'0 0.0
2013-Aug-16 07:30N 26°06' W 080°07'0 0.0
2013-Aug-16 06:30N 26°06' W 080°07'0 0.0
2013-Aug-16 05:30N 26°06' W 080°07'0 0.0
2013-Aug-16 04:33N 26°06' W 080°07'0 0.0
2013-Aug-16 03:33N 26°06' W 080°07'0 0.0
2013-Aug-16 02:21N 26°06' W 080°07'0 0.0
2013-Aug-16 01:33N 26°06' W 080°07'0 0.0
2013-Aug-16 00:33N 26°06' W 080°07'0 0.0
2013-Aug-15 23:24N 26°06' W 080°07'0 0.0
2013-Aug-15 22:24N 26°06' W 080°07'0 0.0
2013-Aug-15 21:27N 26°06' W 080°07'0 0.0
2013-Aug-15 20:30N 26°06' W 080°07'0 0.0
2013-Aug-15 19:30N 26°06' W 080°07'0 0.0
2013-Aug-15 18:30N 26°06' W 080°07'4 3.8
2013-Aug-15 17:27N 26°08' W 080°03'5 5.7
2013-Aug-15 16:33N 26°13' W 080°03'3 3.0
2013-Aug-15 15:33N 26°10' W 080°03'6 5.9
2013-Aug-15 14:33N 26°06' W 080°07'0 0.4
2013-Aug-15 13:31N 26°06' W 080°07'0 0.0
2013-Aug-15 12:31N 26°06' W 080°07'0 0.0
2013-Aug-15 11:31N 26°06' W 080°07'1 0.7
2013-Aug-15 10:33N 26°07' W 080°07'  
Track history (hours):
 
Tides and Currents Weather Stations Pressure Air Temp Water Temp Dewpoint Dewpoint Depression Visibility Wind Speed Wind Dir Waves Ship Positions

My Codene

Last reported at 2013-Aug-17 20:04 UTC. Time now 2014-Jul-30 05:05 UTC.
Position N 25°53' W 080°04'.
Warning: this ship's position is months out of date.

Length 34 m.

Type: Pleasure craft. MMSI: 512151000.

Date/timePositionNaut miles runAvg speedWind from/ knotsBaromVisibWave heightAir tempDewpointWater temp
2013-Aug-17 20:04N 25°53' W 080°04'3 6.2
2013-Aug-17 19:33N 25°57' W 080°04'5 5.2
2013-Aug-17 18:33N 26°02' W 080°04'4 3.8
2013-Aug-17 17:31N 26°06' W 080°06'1 1.3
2013-Aug-17 16:30N 26°06' W 080°07'0 0.0
2013-Aug-17 15:30N 26°06' W 080°07'0 0.0
2013-Aug-17 14:33N 26°06' W 080°07'0 0.0
2013-Aug-17 13:33N 26°06' W 080°07'0 0.0
2013-Aug-17 12:24N 26°06' W 080°07'0 0.0
2013-Aug-17 11:24N 26°06' W 080°07'0 0.0
2013-Aug-17 10:24N 26°06' W 080°07'0 0.0
2013-Aug-17 09:27N 26°06' W 080°07'0 0.0
2013-Aug-17 07:15N 26°06' W 080°07'0 0.0
2013-Aug-17 06:33N 26°06' W 080°07'0 0.0
2013-Aug-17 04:30N 26°06' W 080°07'0 0.0
2013-Aug-17 03:06N 26°06' W 080°07'0 0.0
2013-Aug-17 02:21N 26°06' W 080°07'0 0.0
2013-Aug-17 01:33N 26°06' W 080°07'0 0.0
2013-Aug-17 00:24N 26°06' W 080°07'0 0.0
2013-Aug-16 23:24N 26°06' W 080°07'0 0.0
2013-Aug-16 22:24N 26°06' W 080°07'0 0.0
2013-Aug-16 21:24N 26°06' W 080°07'0 0.0
2013-Aug-16 20:30N 26°06' W 080°07'0 0.0
2013-Aug-16 19:30N 26°06' W 080°07'0 0.0
2013-Aug-16 18:30N 26°06' W 080°07'0 0.0
2013-Aug-16 17:18N 26°06' W 080°07'0 0.0
2013-Aug-16 16:33N 26°06' W 080°07'0 0.0
2013-Aug-16 14:33N 26°06' W 080°07'0 0.0
2013-Aug-16 13:33N 26°06' W 080°07'0 0.0
2013-Aug-16 12:24N 26°06' W 080°07'0 0.0
2013-Aug-16 11:24N 26°06' W 080°07'0 0.0
2013-Aug-16 10:27N 26°06' W 080°07'0 0.0
2013-Aug-16 09:27N 26°06' W 080°07'0 0.0
2013-Aug-16 08:30N 26°06' W 080°07'0 0.0
2013-Aug-16 07:30N 26°06' W 080°07'0 0.0
2013-Aug-16 06:30N 26°06' W 080°07'0 0.0
2013-Aug-16 05:30N 26°06' W 080°07'0 0.0
2013-Aug-16 04:33N 26°06' W 080°07'0 0.0
2013-Aug-16 03:33N 26°06' W 080°07'0 0.0
2013-Aug-16 02:21N 26°06' W 080°07'0 0.0
2013-Aug-16 01:33N 26°06' W 080°07'0 0.0
2013-Aug-16 00:33N 26°06' W 080°07'0 0.0
2013-Aug-15 23:24N 26°06' W 080°07'0 0.0
2013-Aug-15 22:24N 26°06' W 080°07'0 0.0
2013-Aug-15 21:27N 26°06' W 080°07'0 0.0
2013-Aug-15 20:30N 26°06' W 080°07'0 0.0
2013-Aug-15 19:30N 26°06' W 080°07'0 0.0
2013-Aug-15 18:30N 26°06' W 080°07'4 3.8
2013-Aug-15 17:27N 26°08' W 080°03'5 5.7
2013-Aug-15 16:33N 26°13' W 080°03'3 3.0
2013-Aug-15 15:33N 26°10' W 080°03'6 5.9
2013-Aug-15 14:33N 26°06' W 080°07'0 0.4
2013-Aug-15 13:31N 26°06' W 080°07'0 0.0
2013-Aug-15 12:31N 26°06' W 080°07'0 0.0
2013-Aug-15 11:31N 26°06' W 080°07'1 0.7
2013-Aug-15 10:33N 26°07' W 080°07'  

Dump ship's entire track history